Flight Track Log - Related Links

Times and Time Zones

All times are in EDT time to prevent confusion due to time zone crossing. See the SKW5559 flight status page for this flight to view local times or setup timezone preferences in your user account.

Time Position Orientation Groundspeed Altitude Reporting Facility
EDT Latitude Longitude Course Direction KTS MPH feet Rate Location/Type
Thu 10:26:02 PM 42.0500 -87.8667 14° North 256 295 3,700  Level Chicago TRACON
Thu 10:27:23 PM 42.1531 -87.8689 359° North 295 339 8,300 2,958 Climbing Chicago Center
Thu 10:28:00 PM 42.4292 -87.7617 16° North  Level FlightAware Approximate
Thu 10:28:24 PM 42.2406 -87.8575 North 295 339 10,700  Level Chicago Center
Thu 10:29:00 PM 42.5446 -87.7241 14° North  Level FlightAware Approximate
Thu 10:29:26 PM 42.3317 -87.8458 North 345 397 12,100  Level Chicago Center
Thu 10:30:00 PM 42.6604 -87.6855 14° North  Level FlightAware Approximate
Thu 10:30:27 PM 42.4331 -87.8308 North 366 421 14,000  Level Chicago Center
Thu 10:31:00 PM 42.7763 -87.6468 14° North  Level FlightAware Approximate
Thu 10:31:29 PM 42.5358 -87.8222 North 371 427 15,400  Level Chicago Center
Thu 10:32:30 PM 42.6367 -87.7647 23° Northeast 395 455 16,600 1,131 Climbing Chicago Center
Thu 10:33:31 PM 42.7367 -87.6956 27° Northeast 401 461 17,700 1,220 Climbing Chicago Center
Thu 10:34:33 PM 42.8550 -87.6050 29° Northeast 407 468 19,100 1,463 Climbing Chicago Center
Thu 10:35:34 PM 42.9442 -87.5058 39° Northeast 413 475 20,700 1,756 Climbing Chicago Center
Thu 10:36:36 PM 43.0308 -87.4108 39° Northeast 406 467 22,700 1,122 Climbing Chicago Center
Thu 10:37:37 PM 43.1264 -87.3067 38° Northeast 412 474 23,000 148 Climbing Chicago Center
Thu 10:38:38 PM 43.2261 -87.1981 38° Northeast 447 514 23,000  Level Chicago Center
Thu 10:39:40 PM 43.3286 -87.0839 39° Northeast 466 536 23,000  Level Chicago Center
Thu 10:40:41 PM 43.4358 -86.9658 39° Northeast 487 560 23,000  Level Chicago Center
Thu 10:41:42 PM 43.5428 -86.8469 39° Northeast 492 566 23,000  Level Chicago Center
Thu 10:42:43 PM 43.6511 -86.7272 39° Northeast 493 567 23,000  Level Chicago Center
Thu 10:43:20 PM 43.7158 -86.6522 40° Northeast 493 567 23,000  Level Minneapolis Center
Thu 10:44:21 PM 43.8211 -86.5317 40° Northeast 492 566 23,000 -49 Level Minneapolis Center
Thu 10:45:23 PM 43.9269 -86.4103 40° Northeast 492 566 22,900 -1,951 Descending Minneapolis Center
Thu 10:46:24 PM 44.0275 -86.2958 39° Northeast 474 545 19,000 -4,082 Descending Minneapolis Center
Thu 10:47:25 PM 44.1322 -86.1761 39° Northeast 453 521 14,600 -3,659 Descending Minneapolis Center
Thu 10:48:27 PM 44.2181 -86.0767 40° Northeast 409 471 11,500 -2,244 Descending Minneapolis Center
Thu 10:49:28 PM 44.2958 -85.9872 39° Northeast 369 425 10,000 -1,902 Descending Minneapolis Center
Thu 10:50:30 PM 44.3639 -85.9094 39° Northeast 327 376 7,600 -1,707 Descending Minneapolis Center
Thu 10:51:31 PM 44.4572 -85.8519 24° Northeast 310 357 6,500 -1,082 Descending Minneapolis Center
Thu 10:52:32 PM 44.5350 -85.8089 22° Northeast 307 353 5,400 -1,024 Descending Minneapolis Center
Thu 10:53:34 PM 44.6075 -85.7675 22° Northeast 297 342 4,400 -878 Descending Minneapolis Center
Thu 10:54:35 PM 44.6664 -85.7403 18° North 251 289 3,600 -836 Descending Minneapolis Center
Thu 10:55:36 PM 44.7111 -85.7122 24° Northeast 208 239 2,700 -732 Descending Minneapolis Center
Thu 10:56:38 PM 44.7400 -85.6736 44° Northeast 170 196 2,100 -732 Descending Minneapolis Center
Thu 10:57:39 PM 44.7453 -85.6181 82° East 148 170 1,200 -885 Descending Minneapolis Center

Login

Don't have an account? Register now (free) for customized features, flight alerts, and more!